createdAt,value
2023-04-01T00:02:06.787Z,245.63
2023-04-01T00:04:34.718Z,262.20
2023-04-01T00:07:03.040Z,264.90
2023-04-01T00:09:31.081Z,267.47
2023-04-01T00:11:58.715Z,250.60
2023-04-01T00:14:26.435Z,252.07
2023-04-01T00:16:54.511Z,257.53
2023-04-01T00:19:23.539Z,260.17
2023-04-01T00:21:51.192Z,271.83
2023-04-01T00:24:18.861Z,261.73
2023-04-01T00:26:48.510Z,262.47
2023-04-01T00:29:16.155Z,254.90
2023-04-01T00:31:43.883Z,259.97
2023-04-01T00:34:11.528Z,269.63
2023-04-01T00:36:40.757Z,260.00
2023-04-01T00:39:08.417Z,272.53
2023-04-01T00:41:36.378Z,253.02
2023-04-01T00:44:19.023Z,256.40
2023-04-01T00:46:47.071Z,262.27
2023-04-01T00:49:15.984Z,248.10
2023-04-01T00:51:47.289Z,247.43
2023-04-01T00:54:16.737Z,262.17
2023-04-01T00:56:49.661Z,271.17
2023-04-01T00:59:22.882Z,246.77
2023-04-01T01:01:51.966Z,250.33
2023-04-01T01:04:28.030Z,257.97
2023-04-01T01:07:07.353Z,256.63
2023-04-01T01:09:45.286Z,260.47
2023-04-01T01:12:16.259Z,250.80
2023-04-01T01:14:54.800Z,259.33
2023-04-01T01:17:34.399Z,234.67
2023-04-01T01:20:26.570Z,258.27
2023-04-01T01:23:19.058Z,228.30
2023-04-01T01:25:58.653Z,249.07
2023-04-01T01:28:38.324Z,238.73
2023-04-01T01:31:14.972Z,221.60
2023-04-01T01:34:12.428Z,235.57
2023-04-01T01:36:45.994Z,229.53
2023-04-01T01:39:15.043Z,239.23
2023-04-01T01:41:44.917Z,233.57
2023-04-01T01:44:15.896Z,239.73
2023-04-01T01:46:45.773Z,228.87
2023-04-01T01:49:14.988Z,239.47
2023-04-01T01:51:45.002Z,240.43
2023-04-01T01:54:14.684Z,220.20
2023-04-01T01:56:45.237Z,241.00
2023-04-01T01:59:14.818Z,232.80
2023-04-01T02:01:47.230Z,235.47
2023-04-01T02:04:16.893Z,229.23
2023-04-01T02:06:53.352Z,232.97
2023-04-01T02:09:21.941Z,246.80
2023-04-01T02:11:52.889Z,241.10
2023-04-01T02:14:23.497Z,230.77
2023-04-01T02:16:55.638Z,237.33
2023-04-01T02:19:27.747Z,238.97
2023-04-01T02:21:59.623Z,225.17
2023-04-01T02:24:29.391Z,224.93
2023-04-01T02:26:57.634Z,225.57
2023-04-01T02:29:26.964Z,220.13
2023-04-01T02:31:56.624Z,234.63
2023-04-01T02:34:26.611Z,225.47
2023-04-01T02:36:55.664Z,247.17
2023-04-01T02:39:26.503Z,230.00
2023-04-01T02:41:54.865Z,230.40
2023-04-01T02:44:22.652Z,242.07
2023-04-01T02:46:51.365Z,224.30
2023-04-01T02:49:18.999Z,233.27
2023-04-01T02:51:47.031Z,231.13
2023-04-01T02:54:43.287Z,227.10
2023-04-01T02:57:12.470Z,217.70
2023-04-01T02:59:40.964Z,222.63
2023-04-01T03:02:08.728Z,217.67
2023-04-01T03:04:36.367Z,223.60
2023-04-01T03:07:04.247Z,223.97
2023-04-01T03:09:32.693Z,237.57
2023-04-01T03:12:00.369Z,217.87
2023-04-01T03:14:30.780Z,230.77
2023-04-01T03:16:58.676Z,217.88
2023-04-01T03:19:26.599Z,230.98
2023-04-01T03:21:54.359Z,229.20
2023-04-01T03:24:22.294Z,212.50
2023-04-01T03:26:50.343Z,220.68
2023-04-01T03:29:18.087Z,230.53
2023-04-01T03:31:47.110Z,220.30
2023-04-01T03:34:14.952Z,232.40
2023-04-01T03:36:43.261Z,216.18
2023-04-01T03:39:11.011Z,235.87
2023-04-01T03:41:42.682Z,231.67
2023-04-01T03:44:10.383Z,235.77
2023-04-01T03:46:38.206Z,237.80
2023-04-01T03:49:12.423Z,243.17
2023-04-01T03:51:40.518Z,243.40
2023-04-01T03:54:08.504Z,225.97
2023-04-01T03:56:36.399Z,230.47
2023-04-01T03:59:05.923Z,246.03
2023-04-01T04:01:34.253Z,237.20
2023-04-01T04:04:02.212Z,240.93
2023-04-01T04:06:31.467Z,240.70
2023-04-01T04:08:59.179Z,222.87
2023-04-01T04:11:28.083Z,238.43
2023-04-01T04:13:57.144Z,225.50
2023-04-01T04:16:25.712Z,236.43
2023-04-01T04:19:02.940Z,230.53
2023-04-01T04:21:31.975Z,234.33
2023-04-01T04:24:01.550Z,240.87
2023-04-01T04:26:38.307Z,230.00
2023-04-01T04:29:05.991Z,223.67
2023-04-01T04:31:33.741Z,226.63
2023-04-01T04:34:02.667Z,227.97
2023-04-01T04:36:35.681Z,220.47
2023-04-01T04:39:04.206Z,220.80
2023-04-01T04:41:35.911Z,213.83
2023-04-01T04:44:06.357Z,222.13
2023-04-01T04:46:34.299Z,215.97
2023-04-01T04:49:11.806Z,235.90
2023-04-01T04:51:41.458Z,218.67
2023-04-01T04:54:10.861Z,235.90
2023-04-01T04:56:50.385Z,211.65
2023-04-01T04:59:18.630Z,224.87
2023-04-01T05:01:52.986Z,218.90
2023-04-01T05:04:20.689Z,223.63
2023-04-01T05:06:50.312Z,245.27
2023-04-01T05:09:18.927Z,234.33
2023-04-01T05:11:46.828Z,232.50
2023-04-01T05:14:16.097Z,228.27
2023-04-01T05:16:48.030Z,233.10
2023-04-01T05:19:15.867Z,249.17
2023-04-01T05:21:43.693Z,235.03
2023-04-01T05:24:12.742Z,230.47
2023-04-01T05:26:41.087Z,242.07
2023-04-01T05:29:08.761Z,241.10
2023-04-01T05:31:36.898Z,242.90
2023-04-01T05:34:06.084Z,241.10
2023-04-01T05:36:34.322Z,243.47
2023-04-01T05:39:02.182Z,245.07
2023-04-01T05:41:31.619Z,248.27
2023-04-01T05:43:59.239Z,264.63
2023-04-01T05:46:42.566Z,234.70
2023-04-01T05:49:29.054Z,234.77
2023-04-01T05:51:57.318Z,252.87
2023-04-01T05:54:25.450Z,244.00
2023-04-01T05:56:54.591Z,257.73
2023-04-01T05:59:22.448Z,254.43
2023-04-01T06:01:50.141Z,253.20
2023-04-01T06:04:19.545Z,250.97
2023-04-01T06:06:47.717Z,272.43
2023-04-01T06:09:17.760Z,248.23
2023-04-01T06:12:18.726Z,245.53
2023-04-01T06:15:08.713Z,234.87
2023-04-01T06:17:49.430Z,241.43
2023-04-01T06:20:26.602Z,234.70
2023-04-01T06:23:08.406Z,238.53
2023-04-01T06:25:52.220Z,240.60
2023-04-01T06:29:16.598Z,238.83
2023-04-01T06:32:03.424Z,229.50
2023-04-01T06:34:50.246Z,240.73
2023-04-01T06:37:33.561Z,243.50
2023-04-01T06:40:28.759Z,250.70
2023-04-01T06:43:09.775Z,239.87
2023-04-01T06:46:04.669Z,239.93
2023-04-01T06:49:07.106Z,244.77
2023-04-01T06:52:01.727Z,243.37
2023-04-01T06:54:54.417Z,244.63
2023-04-01T06:57:45.651Z,245.23
2023-04-01T07:00:21.046Z,247.43
2023-04-01T07:02:59.008Z,256.33
2023-04-01T07:05:29.401Z,246.07
2023-04-01T07:08:01.351Z,255.63
2023-04-01T07:10:37.802Z,252.60
2023-04-01T07:13:29.152Z,257.03
2023-04-01T07:16:15.774Z,250.53
2023-04-01T07:18:51.798Z,243.83
2023-04-01T07:21:30.548Z,252.63
2023-04-01T07:24:06.540Z,252.50
2023-04-01T07:26:41.355Z,249.27
2023-04-01T07:29:16.579Z,254.80
2023-04-01T07:32:14.525Z,247.20
2023-04-01T07:34:53.824Z,242.83
2023-04-01T07:37:29.826Z,251.23
2023-04-01T07:40:12.528Z,260.93
2023-04-01T07:42:55.334Z,262.03
2023-04-01T07:45:29.146Z,250.37
2023-04-01T07:48:13.177Z,269.33
2023-04-01T07:50:49.164Z,246.83
2023-04-01T07:53:24.832Z,239.73
2023-04-01T07:56:06.435Z,245.60
2023-04-01T07:58:46.709Z,245.47
2023-04-01T08:01:32.541Z,234.40
2023-04-01T08:04:28.327Z,251.77
2023-04-01T08:10:28.240Z,243.47
2023-04-01T08:13:26.392Z,225.97
2023-04-01T08:16:22.121Z,232.73
2023-04-01T08:19:01.410Z,242.17
2023-04-01T08:21:34.261Z,262.30
2023-04-01T08:24:20.701Z,236.17
2023-04-01T08:26:56.078Z,235.40
2023-04-01T08:29:27.882Z,218.13
2023-04-01T08:32:00.256Z,238.00
2023-04-01T08:34:33.430Z,236.43
2023-04-01T08:37:06.796Z,228.17
2023-04-01T08:39:39.769Z,221.90
2023-04-01T08:42:37.262Z,212.33
2023-04-01T08:45:34.660Z,197.17
2023-04-01T08:48:36.891Z,199.60
2023-04-01T08:51:39.302Z,204.70
2023-04-01T08:54:30.747Z,193.33
2023-04-01T08:57:06.010Z,194.43
2023-04-01T08:59:51.131Z,202.67
2023-04-01T09:02:57.542Z,189.03
2023-04-01T09:06:00.901Z,194.10
2023-04-01T09:08:45.458Z,184.47
2023-04-01T09:11:30.009Z,214.87
2023-04-01T09:14:17.741Z,199.30
2023-04-01T09:17:10.473Z,219.73
2023-04-01T09:19:52.292Z,218.97
2023-04-01T09:22:26.689Z,221.77
2023-04-01T09:25:23.290Z,227.40
2023-04-01T09:27:59.136Z,222.97
2023-04-01T09:30:56.197Z,222.90
2023-04-01T09:33:54.524Z,208.67
2023-04-01T09:36:45.254Z,199.33
2023-04-01T09:39:29.028Z,212.30
2023-04-01T09:42:09.436Z,210.40
2023-04-01T09:44:48.411Z,235.53
2023-04-01T09:47:30.624Z,224.17
2023-04-01T09:50:18.599Z,224.33
2023-04-01T09:52:55.004Z,224.57
2023-04-01T09:55:54.208Z,221.20
2023-04-01T09:58:47.100Z,208.17
2023-04-01T10:02:04.285Z,200.70
2023-04-01T10:05:06.704Z,228.10
2023-04-01T10:08:06.927Z,215.43
2023-04-01T10:10:57.667Z,222.07
2023-04-01T10:14:02.718Z,231.50
2023-04-01T10:17:00.057Z,220.63
2023-04-01T10:19:57.441Z,230.00
2023-04-01T10:22:56.206Z,223.47
2023-04-01T10:25:47.179Z,222.13
2023-04-01T10:28:38.532Z,235.33
2023-04-01T10:32:07.583Z,213.67
2023-04-01T10:35:07.217Z,232.80
2023-04-01T10:37:56.365Z,233.63
2023-04-01T10:40:54.021Z,241.67
2023-04-01T10:44:33.268Z,229.97
2023-04-01T10:47:38.214Z,234.93
2023-04-01T10:50:25.966Z,236.67
2023-04-01T10:53:33.470Z,229.38
2023-04-01T10:56:40.646Z,236.40
2023-04-01T10:59:46.612Z,235.93
2023-04-01T11:03:13.470Z,235.20
2023-04-01T11:06:24.317Z,234.80
2023-04-01T11:09:21.524Z,235.77
2023-04-01T11:12:05.883Z,252.33
2023-04-01T11:15:28.276Z,244.20
2023-04-01T11:18:52.450Z,237.07
2023-04-01T11:22:01.653Z,243.07
2023-04-01T11:25:01.030Z,256.63
2023-04-01T11:27:55.842Z,239.20
2023-04-01T11:30:51.130Z,258.57
2023-04-01T11:33:24.747Z,282.20
2023-04-01T11:36:17.038Z,276.93
2023-04-01T11:39:02.343Z,277.57
2023-04-01T11:42:22.901Z,251.83
2023-04-01T11:45:26.608Z,243.47
2023-04-01T11:48:09.083Z,279.47
2023-04-01T11:50:52.571Z,258.63
2023-04-01T11:53:34.862Z,255.03
2023-04-01T11:56:15.789Z,263.27
2023-04-01T11:59:26.364Z,264.23
2023-04-01T12:02:05.127Z,269.93
2023-04-01T12:04:45.711Z,248.30
2023-04-01T12:07:23.422Z,278.87
2023-04-01T12:10:01.243Z,256.53
2023-04-01T12:12:40.122Z,261.57
2023-04-01T12:15:23.905Z,253.53
2023-04-01T12:17:58.979Z,259.97
2023-04-01T12:20:43.307Z,293.20
2023-04-01T12:23:22.686Z,253.10
2023-04-01T12:26:12.137Z,271.90
2023-04-01T12:28:56.246Z,279.90
2023-04-01T12:31:37.825Z,264.08
2023-04-01T12:34:36.636Z,285.20
2023-04-01T12:37:10.406Z,258.05
2023-04-01T12:39:53.664Z,275.80
2023-04-01T12:42:38.788Z,262.88
2023-04-01T12:45:28.779Z,294.25
2023-04-01T12:48:24.454Z,277.43
2023-04-01T12:51:22.658Z,263.58
2023-04-01T12:54:17.127Z,283.85
2023-04-01T12:56:55.193Z,278.67
2023-04-01T12:59:39.443Z,270.17
2023-04-01T13:02:23.097Z,262.33
2023-04-01T13:05:05.393Z,278.83
2023-04-01T13:08:11.893Z,266.35
2023-04-01T13:10:52.520Z,250.40
2023-04-01T13:13:36.387Z,258.83
2023-04-01T13:16:12.423Z,284.80
2023-04-01T13:18:57.393Z,265.77
2023-04-01T13:21:35.444Z,269.38
2023-04-01T13:24:12.527Z,276.60
2023-04-01T13:26:53.122Z,280.08
2023-04-01T13:29:24.060Z,275.75
2023-04-01T13:32:11.528Z,265.17
2023-04-01T13:34:58.597Z,273.85
2023-04-01T13:37:36.627Z,280.85
2023-04-01T13:40:19.990Z,260.17
2023-04-01T13:42:55.138Z,249.18
2023-04-01T13:45:26.839Z,269.25
2023-04-01T13:48:29.013Z,270.83
2023-04-01T13:51:42.685Z,233.98
2023-04-01T13:54:34.844Z,224.85
2023-04-01T13:57:19.996Z,255.55
2023-04-01T14:00:19.035Z,254.25
2023-04-01T14:03:02.816Z,251.82
2023-04-01T14:06:21.420Z,256.27
2023-04-01T14:09:05.564Z,247.88
2023-04-01T14:11:40.345Z,248.02
2023-04-01T14:14:18.270Z,236.38
2023-04-01T14:17:10.434Z,243.90
2023-04-01T14:19:55.448Z,245.93
2023-04-01T14:22:32.549Z,252.30
2023-04-01T14:25:29.082Z,250.20
2023-04-01T14:28:06.133Z,249.77
2023-04-01T14:30:50.641Z,243.75
2023-04-01T14:33:27.941Z,242.25
2023-04-01T14:36:10.733Z,253.18
2023-04-01T14:38:56.909Z,236.70
2023-04-01T14:41:39.362Z,249.63
2023-04-01T14:44:37.292Z,245.05
2023-04-01T14:47:26.310Z,248.82
2023-04-01T14:49:56.941Z,233.23
2023-04-01T14:52:30.214Z,259.45
2023-04-01T14:54:59.925Z,239.55
2023-04-01T14:57:31.028Z,266.00
2023-04-01T15:00:03.551Z,249.00
2023-04-01T15:02:53.734Z,244.30
2023-04-01T15:05:34.656Z,243.35
2023-04-01T15:08:17.648Z,241.23
2023-04-01T15:11:10.621Z,259.58
2023-04-01T15:14:14.819Z,258.85
2023-04-01T15:16:57.569Z,253.70
2023-04-01T15:19:38.415Z,239.00
2023-04-01T15:22:25.955Z,236.20
2023-04-01T15:25:07.646Z,238.90
2023-04-01T15:27:44.364Z,240.50
2023-04-01T15:30:23.609Z,240.85
2023-04-01T15:33:09.512Z,238.77
2023-04-01T15:35:43.834Z,245.70
2023-04-01T15:38:27.489Z,252.35
2023-04-01T15:41:02.929Z,246.02
2023-04-01T15:43:42.122Z,246.88
2023-04-01T15:46:45.439Z,246.05
2023-04-01T15:49:35.096Z,233.00
2023-04-01T15:52:24.943Z,223.25
2023-04-01T15:55:19.430Z,236.25
2023-04-01T15:58:03.636Z,245.83
2023-04-01T16:00:32.950Z,247.85
2023-04-01T16:03:20.806Z,270.80
2023-04-01T16:06:14.722Z,247.18
2023-04-01T16:09:03.917Z,253.90
2023-04-01T16:11:43.218Z,261.13
2023-04-01T16:14:22.986Z,243.27
2023-04-01T16:17:01.685Z,243.30
2023-04-01T16:19:39.610Z,242.02
2023-04-01T16:22:14.853Z,256.73
2023-04-01T16:24:47.325Z,254.43
2023-04-01T16:27:20.010Z,259.23
2023-04-01T16:29:53.059Z,279.63
2023-04-01T16:32:33.420Z,267.83
2023-04-01T16:35:16.908Z,265.17
2023-04-01T16:37:51.483Z,264.60
2023-04-01T16:40:35.602Z,274.35
2023-04-01T16:43:12.300Z,265.60
2023-04-01T16:45:45.410Z,265.57
2023-04-01T16:48:17.002Z,278.53
2023-04-01T16:51:00.568Z,269.17
2023-04-01T16:53:45.224Z,276.27
2023-04-01T16:56:18.597Z,301.73
2023-04-01T16:59:01.902Z,270.50
2023-04-01T17:01:38.236Z,274.27
2023-04-01T17:04:13.819Z,264.43
2023-04-01T17:06:50.686Z,260.57
2023-04-01T17:09:44.283Z,275.30
2023-04-01T17:12:21.813Z,265.00
2023-04-01T17:15:01.395Z,261.87
2023-04-01T17:17:36.950Z,260.10
2023-04-01T17:20:17.281Z,263.43
2023-04-01T17:22:55.087Z,248.63
2023-04-01T17:25:36.134Z,265.17
2023-04-01T17:28:14.981Z,270.77
2023-04-01T17:30:51.168Z,268.87
2023-04-01T17:33:56.961Z,268.67
2023-04-01T17:36:39.445Z,254.20
2023-04-01T17:39:22.097Z,261.77
2023-04-01T17:41:58.350Z,244.87
2023-04-01T17:44:46.373Z,252.97
2023-04-01T17:47:26.888Z,244.60
2023-04-01T17:50:03.759Z,240.10
2023-04-01T17:52:36.598Z,256.23
2023-04-01T17:55:40.830Z,265.30
2023-04-01T17:58:19.031Z,214.23
2023-04-01T18:01:00.757Z,259.47
2023-04-01T18:03:51.500Z,238.03
2023-04-01T18:06:23.072Z,235.60
2023-04-01T18:09:00.344Z,272.27
2023-04-01T18:11:41.115Z,235.97
2023-04-01T18:14:44.902Z,236.23
2023-04-01T18:17:25.386Z,232.95
2023-04-01T18:20:11.214Z,276.70
2023-04-01T18:22:43.451Z,242.85
2023-04-01T18:25:21.661Z,265.38
2023-04-01T18:27:52.674Z,251.95
2023-04-01T18:30:28.258Z,249.73
2023-04-01T18:33:02.594Z,241.20
2023-04-01T18:35:47.086Z,253.60
2023-04-01T18:38:18.327Z,238.80
2023-04-01T18:40:53.585Z,227.20
2023-04-01T18:43:38.462Z,244.60
2023-04-01T18:46:18.971Z,237.73
2023-04-01T18:48:54.247Z,233.63
2023-04-01T18:51:26.571Z,238.27
2023-04-01T18:53:59.518Z,246.73
2023-04-01T18:56:32.497Z,227.40
2023-04-01T18:59:07.687Z,243.33
2023-04-01T19:01:42.979Z,243.40
2023-04-01T19:04:21.111Z,229.03
2023-04-01T19:06:52.761Z,228.30
2023-04-01T19:09:23.749Z,214.50
2023-04-01T19:12:04.160Z,238.70
2023-04-01T19:14:49.001Z,225.57
2023-04-01T19:17:32.190Z,238.50
2023-04-01T19:20:09.369Z,244.33
2023-04-01T19:22:54.119Z,224.43
2023-04-01T19:25:28.669Z,238.63
2023-04-01T19:28:09.398Z,226.43
2023-04-01T19:30:49.771Z,249.43
2023-04-01T19:33:34.868Z,225.10
2023-04-01T19:36:13.290Z,203.23
2023-04-01T19:38:42.258Z,224.50
2023-04-01T19:41:23.172Z,233.73
2023-04-01T19:44:01.739Z,231.60
2023-04-01T19:46:34.610Z,237.17
2023-04-01T19:49:20.034Z,224.17
2023-04-01T19:51:53.548Z,231.57
2023-04-01T19:54:32.330Z,212.83
2023-04-01T19:57:13.234Z,239.23
2023-04-01T19:59:47.436Z,221.03
2023-04-01T20:02:36.614Z,208.07
2023-04-01T20:05:25.801Z,221.83
2023-04-01T20:07:55.770Z,226.93
2023-04-01T20:10:33.948Z,218.70
2023-04-01T20:13:08.657Z,215.17
2023-04-01T20:15:39.719Z,222.17
2023-04-01T20:18:15.390Z,227.57
2023-04-01T20:20:56.804Z,219.00
2023-04-01T20:23:37.006Z,222.67
2023-04-01T20:26:08.683Z,227.37
2023-04-01T20:28:45.632Z,216.67
2023-04-01T20:31:29.381Z,220.83
2023-04-01T20:34:23.867Z,226.67
2023-04-01T20:37:15.473Z,225.33
2023-04-01T20:40:19.584Z,203.10
2023-04-01T20:43:22.332Z,230.90
2023-04-01T20:45:58.568Z,211.93
2023-04-01T20:48:40.852Z,215.27
2023-04-01T20:51:12.568Z,224.23
2023-04-01T20:53:45.660Z,228.10
2023-04-01T20:56:34.736Z,218.13
2023-04-01T20:59:18.278Z,230.30
2023-04-01T21:01:52.969Z,232.70
2023-04-01T21:04:32.624Z,230.90
2023-04-01T21:07:14.423Z,238.93
2023-04-01T21:10:10.151Z,232.93
2023-04-01T21:12:49.848Z,216.43
2023-04-01T21:15:32.600Z,234.57
2023-04-01T21:18:12.212Z,223.37
2023-04-01T21:21:01.203Z,219.17
2023-04-01T21:23:43.964Z,215.17
2023-04-01T21:26:28.673Z,220.73
2023-04-01T21:29:13.343Z,205.27
2023-04-01T21:31:54.125Z,215.37
2023-04-01T21:34:42.739Z,213.00
2023-04-01T21:37:27.965Z,204.97
2023-04-01T21:40:14.457Z,209.57
2023-04-01T21:42:51.460Z,222.33
2023-04-01T21:45:34.394Z,218.37
2023-04-01T21:48:40.244Z,232.87
2023-04-01T21:51:35.665Z,226.33
2023-04-01T21:54:39.428Z,206.53
2023-04-01T21:57:37.975Z,228.37
2023-04-01T22:00:23.231Z,218.90
2023-04-01T22:03:30.647Z,224.47
2023-04-01T22:06:23.479Z,215.77
2023-04-01T22:09:05.443Z,220.23
2023-04-01T22:11:45.814Z,209.73
2023-04-01T22:14:23.006Z,225.10
2023-04-01T22:16:58.334Z,229.77
2023-04-01T22:19:32.106Z,222.10
2023-04-01T22:22:06.133Z,220.90
2023-04-01T22:24:53.564Z,237.60
2023-04-01T22:27:28.914Z,235.10
2023-04-01T22:30:06.500Z,222.70
2023-04-01T22:32:44.137Z,219.83
2023-04-01T22:35:25.881Z,226.47
2023-04-01T22:38:01.500Z,229.77
2023-04-01T22:40:36.704Z,248.20
2023-04-01T22:43:08.472Z,242.37
2023-04-01T22:45:54.646Z,237.03
2023-04-01T22:48:33.748Z,233.40
2023-04-01T22:51:10.102Z,241.13
2023-04-01T22:53:56.707Z,229.63
2023-04-01T22:56:29.804Z,234.23
2023-04-01T22:59:02.402Z,226.67
2023-04-01T23:01:35.285Z,230.73
2023-04-01T23:04:07.222Z,222.63
2023-04-01T23:06:39.769Z,233.80
2023-04-01T23:09:13.110Z,226.63
2023-04-01T23:11:46.930Z,229.37
2023-04-01T23:14:41.689Z,230.43
2023-04-01T23:17:44.032Z,221.17
2023-04-01T23:20:21.460Z,205.57
2023-04-01T23:23:00.926Z,252.63
2023-04-01T23:25:40.337Z,243.50
2023-04-01T23:28:33.714Z,235.00
2023-04-01T23:31:01.443Z,214.40
2023-04-01T23:33:31.937Z,237.63
2023-04-01T23:36:06.285Z,235.97
2023-04-01T23:38:36.550Z,246.67
2023-04-01T23:41:05.872Z,236.33
2023-04-01T23:43:37.533Z,235.20
2023-04-01T23:46:08.225Z,260.77
2023-04-01T23:48:39.863Z,257.90
2023-04-01T23:51:16.855Z,254.50
2023-04-01T23:53:47.340Z,253.27
2023-04-01T23:56:15.358Z,242.17
2023-04-01T23:58:45.993Z,254.83
